Time;durP1;ratioP1;P1;durP2;ratioP2;P2;SDS_P1;SDS_P2;PMS_P1;PMS_P2;Temp;Humidity;BMP_temperature;BMP_pressure;BME280_temperature;BME280_humidity;BME280_pressure;Samples;Min_cycle;Max_cycle;Signal;HPM_P1;HPM_P2
2022/06/21 00:02:12;;;;;;;3.60;2.80;;;;;;;13.61;81.76;99461.93;130192;1271;108634;-74
2022/06/21 00:05:22;;;;;;;3.50;2.70;;;;;;;13.58;81.62;99471.79;130177;1271;108722;-75
2022/06/21 00:08:30;;;;;;;3.80;2.50;;;;;;;13.46;81.63;99473.01;130242;1271;108761;-74
2022/06/21 00:11:36;;;;;;;3.20;2.60;;;;;;;13.40;81.71;99469.16;130162;1271;108953;-72
2022/06/21 00:14:42;;;;;;;5.90;2.70;;;;;;;13.40;81.80;99474.52;130241;1271;108936;-72
2022/06/21 00:17:49;;;;;;;3.20;2.60;;;;;;;13.44;81.78;99469.36;130496;1268;108835;-73
2022/06/21 00:20:55;;;;;;;3.70;2.80;;;;;;;13.46;81.72;99461.39;130514;1268;108840;-73
2022/06/21 00:24:01;;;;;;;3.10;2.50;;;;;;;13.36;81.76;99453.91;130530;1268;108777;-75
2022/06/21 00:27:10;;;;;;;3.00;2.20;;;;;;;13.31;81.77;99456.15;130472;1268;108736;-74
2022/06/21 00:30:17;;;;;;;3.50;2.50;;;;;;;13.35;81.97;99455.86;130420;1268;108787;-75
2022/06/21 00:33:24;;;;;;;3.60;3.00;;;;;;;13.33;81.94;99450.45;130408;1267;108741;-74
2022/06/21 00:36:34;;;;;;;3.90;3.20;;;;;;;13.28;81.79;99442.34;130516;1265;108879;-76
2022/06/21 00:39:40;;;;;;;4.10;2.70;;;;;;;13.32;81.68;99430.83;130476;1265;109008;-75
2022/06/21 00:42:47;;;;;;;3.90;2.80;;;;;;;13.34;81.62;99428.04;130589;1265;107623;-77
2022/06/21 00:45:53;;;;;;;3.80;2.70;;;;;;;13.31;81.56;99426.95;130600;1265;108851;-75
2022/06/21 00:48:59;;;;;;;5.70;2.90;;;;;;;13.35;81.70;99421.53;130564;1265;108757;-74
2022/06/21 00:52:13;;;;;;;4.20;3.10;;;;;;;13.38;81.59;99418.71;130401;1268;107955;-74
2022/06/21 00:55:25;;;;;;;5.90;3.10;;;;;;;13.42;81.49;99418.99;130410;1265;108972;-74
2022/06/21 00:58:31;;;;;;;4.10;3.40;;;;;;;13.47;81.44;99413.77;130396;1265;108758;-73
2022/06/21 01:01:36;;;;;;;3.80;3.10;;;;;;;13.47;81.36;99413.20;130407;1265;108843;-73
2022/06/21 01:04:45;;;;;;;3.50;2.70;;;;;;;13.48;81.32;99409.20;130483;1265;108250;-73
2022/06/21 01:07:52;;;;;;;4.10;3.20;;;;;;;13.52;81.32;99407.02;130466;1265;108874;-73
2022/06/21 01:11:05;;;;;;;5.00;3.40;;;;;;;13.58;81.29;99398.77;130524;1265;108976;-73
2022/06/21 01:14:11;;;;;;;4.60;3.80;;;;;;;13.62;81.14;99393.28;130558;1265;108858;-74
2022/06/21 01:17:18;;;;;;;4.70;4.00;;;;;;;13.63;81.19;99392.66;130630;1265;108869;-75
2022/06/21 01:20:28;;;;;;;4.80;4.30;;;;;;;13.63;81.06;99390.36;130670;1265;109292;-73
2022/06/21 01:23:46;;;;;;;5.20;3.50;;;;;;;13.60;81.04;99384.06;130596;1265;107642;-74
2022/06/21 01:26:57;;;;;;;5.00;4.00;;;;;;;13.59;80.94;99391.93;130489;1268;108950;-74
2022/06/21 01:30:04;;;;;;;5.20;3.80;;;;;;;13.58;81.06;99397.20;130574;1265;108859;-73
2022/06/21 01:33:12;;;;;;;5.90;3.30;;;;;;;13.60;80.98;99399.44;130471;1265;108592;-71
2022/06/21 01:36:21;;;;;;;6.60;3.60;;;;;;;13.63;80.96;99399.23;130462;1265;108919;-72
2022/06/21 01:39:31;;;;;;;5.70;3.90;;;;;;;13.64;80.94;99403.68;130426;1265;107695;-74
2022/06/21 01:42:43;;;;;;;5.80;4.30;;;;;;;13.62;80.93;99410.59;130493;1265;108822;-74
2022/06/21 01:45:56;;;;;;;7.40;3.70;;;;;;;13.60;80.88;99411.61;130390;1265;108811;-75
2022/06/21 01:49:08;;;;;;;4.00;3.20;;;;;;;13.58;80.96;99412.89;130426;1265;108780;-73
2022/06/21 01:52:19;;;;;;;5.00;3.40;;;;;;;13.59;80.96;99412.80;130456;1265;108868;-73
2022/06/21 01:55:32;;;;;;;5.50;3.40;;;;;;;13.62;80.95;99414.48;130557;1265;107677;-72
2022/06/21 01:58:43;;;;;;;5.30;3.70;;;;;;;13.64;80.86;99405.38;130411;1265;108734;-72
2022/06/21 02:01:52;;;;;;;4.60;3.50;;;;;;;13.65;80.76;99408.73;130445;1265;108801;-72
2022/06/21 02:05:02;;;;;;;7.30;4.10;;;;;;;13.61;80.55;99413.84;130425;1265;108889;-72
2022/06/21 02:08:13;;;;;;;3.70;3.20;;;;;;;13.57;80.55;99413.27;130545;1265;109241;-72
2022/06/21 02:11:26;;;;;;;4.60;3.20;;;;;;;13.54;80.53;99419.27;130498;1268;108996;-73
2022/06/21 02:14:33;;;;;;;5.20;3.20;;;;;;;13.53;80.62;99419.80;130630;1264;108833;-72
2022/06/21 02:17:43;;;;;;;6.20;4.00;;;;;;;13.58;80.60;99418.31;130644;1265;108064;-72
2022/06/21 02:20:54;;;;;;;5.00;3.70;;;;;;;13.57;80.54;99423.21;130643;1264;108617;-72
2022/06/21 02:24:00;;;;;;;8.20;4.30;;;;;;;13.55;80.33;99416.36;130511;1265;108697;-72
2022/06/21 02:27:06;;;;;;;6.30;4.00;;;;;;;13.48;80.29;99412.55;130464;1265;108726;-73
2022/06/21 02:30:18;;;;;;;6.40;3.80;;;;;;;13.44;80.29;99413.31;130436;1265;109030;-72
2022/06/21 02:33:24;;;;;;;;;;;;;;;13.45;80.48;99416.55;130406;1268;107915;-72
2022/06/21 02:36:33;;;;;;;4.60;3.10;;;;;;;13.51;80.29;99412.94;130477;1265;109629;-72
2022/06/21 02:39:38;;;;;;;4.90;3.50;;;;;;;13.56;80.10;99411.25;130617;1265;108703;-73
2022/06/21 02:42:46;;;;;;;6.10;3.90;;;;;;;13.61;79.94;99413.23;130411;1265;108883;-72
2022/06/21 02:46:00;;;;;;;4.50;3.90;;;;;;;13.59;79.92;99408.23;130423;1268;108793;-71
2022/06/21 02:49:13;;;;;;;5.80;3.90;;;;;;;13.62;79.86;99404.81;130467;1265;108876;-72
2022/06/21 02:52:26;;;;;;;7.80;4.00;;;;;;;13.64;79.75;99403.48;130418;1265;108817;-72
2022/06/21 02:55:44;;;;;;;5.40;4.30;;;;;;;13.65;79.80;99404.15;130415;1267;108968;-78
2022/06/21 02:58:52;;;;;;;6.70;3.60;;;;;;;13.63;79.77;99401.41;130605;1265;108787;-78
2022/06/21 03:02:04;;;;;;;4.60;3.30;;;;;;;13.62;79.65;99405.98;130696;1265;108865;-82
2022/06/21 03:05:16;;;;;;;4.10;3.60;;;;;;;13.70;79.56;99407.45;130650;1265;107688;-80
2022/06/21 03:08:22;;;;;;;5.50;4.10;;;;;;;13.80;79.44;99408.42;130465;1265;108908;-80
2022/06/21 03:11:32;;;;;;;4.70;3.60;;;;;;;13.87;79.37;99410.38;130567;1265;108508;-81
2022/06/21 03:14:39;;;;;;;5.10;4.20;;;;;;;13.88;79.23;99405.60;130518;1265;108706;-78
2022/06/21 03:17:52;;;;;;;6.40;4.50;;;;;;;13.78;79.15;99409.36;130512;1265;108821;-81
2022/06/21 03:20:59;;;;;;;5.80;4.40;;;;;;;13.74;79.18;99411.27;130692;1264;108765;-81
2022/06/21 03:24:13;;;;;;;6.00;4.60;;;;;;;13.70;79.46;99413.76;130488;1265;108667;-81
2022/06/21 03:27:31;;;;;;;6.10;3.80;;;;;;;13.69;79.49;99418.29;130822;1265;108795;-81
2022/06/21 03:30:37;;;;;;;5.20;4.70;;;;;;;13.75;79.26;99415.28;130522;1265;107885;-81
2022/06/21 03:33:46;;;;;;;5.80;4.40;;;;;;;13.81;79.25;99412.39;130548;1265;108010;-82
2022/06/21 03:36:52;;;;;;;5.70;4.50;;;;;;;13.88;78.89;99413.65;130537;1265;108648;-80
2022/06/21 03:43:26;;;;;;;4.80;3.80;;;;;;;13.87;78.91;99411.08;130576;1265;108800;-80
2022/06/21 03:46:45;;;;;;;5.60;3.70;;;;;;;13.78;78.88;99410.93;130652;1268;107690;-80
2022/06/21 03:49:58;;;;;;;5.90;4.10;;;;;;;13.81;78.82;99407.08;130554;1265;108832;-79
2022/06/21 03:53:09;;;;;;;6.00;4.00;;;;;;;13.94;78.98;99404.44;130526;1265;109177;-80
2022/06/21 03:56:21;;;;;;;4.80;3.80;;;;;;;14.04;78.40;99400.71;130560;1265;108908;-81
2022/06/21 03:59:36;;;;;;;5.40;3.80;;;;;;;14.11;78.66;99398.91;130555;1267;108902;-81
2022/06/21 04:02:48;;;;;;;4.70;3.60;;;;;;;14.15;78.37;99401.20;130570;1265;108842;-79
2022/06/21 04:06:03;;;;;;;7.10;3.50;;;;;;;14.27;78.16;99405.44;130528;1265;108725;-79
2022/06/21 04:09:16;;;;;;;5.20;3.20;;;;;;;14.31;77.83;99406.09;130530;1265;108856;-82
2022/06/21 04:12:26;;;;;;;3.70;3.10;;;;;;;14.36;77.63;99396.41;130570;1265;108775;-81
2022/06/21 04:15:36;;;;;;;5.20;2.90;;;;;;;14.40;77.88;99402.08;130549;1265;107786;-81
2022/06/21 04:18:49;;;;;;;3.70;3.30;;;;;;;14.54;77.42;99404.92;130501;1265;108851;-80
2022/06/21 04:22:02;;;;;;;4.70;3.40;;;;;;;14.61;77.52;99415.88;130656;1265;108866;-80
2022/06/21 04:25:15;;;;;;;4.40;3.40;;;;;;;14.54;76.75;99414.87;130643;1265;107200;-80
2022/06/21 04:28:27;;;;;;;5.30;3.50;;;;;;;14.27;76.66;99407.79;130668;1265;108861;-80
2022/06/21 04:31:37;;;;;;;5.80;3.30;;;;;;;14.13;77.03;99408.16;130662;1265;108694;-81
2022/06/21 04:34:47;;;;;;;3.40;2.70;;;;;;;14.07;77.37;99411.68;130447;1268;107843;-81
2022/06/21 04:37:58;;;;;;;3.20;2.90;;;;;;;14.09;77.41;99409.00;130704;1265;108826;-79
2022/06/21 04:41:10;;;;;;;3.50;2.80;;;;;;;14.10;77.10;99410.83;130715;1265;108772;-81
2022/06/21 04:44:20;;;;;;;4.30;3.00;;;;;;;14.11;76.71;99411.53;130580;1265;108910;-79
2022/06/21 04:47:32;;;;;;;4.50;3.00;;;;;;;14.10;76.97;99419.23;130579;1265;108786;-80
2022/06/21 04:50:41;;;;;;;3.80;3.10;;;;;;;14.08;76.69;99421.54;130681;1265;108728;-79
2022/06/21 04:53:54;;;;;;;5.20;3.20;;;;;;;14.12;76.58;99416.61;130562;1265;108888;-80
2022/06/21 04:57:06;;;;;;;3.90;3.00;;;;;;;14.14;75.87;99416.79;130502;1265;108643;-79
2022/06/21 05:00:18;;;;;;;4.60;2.60;;;;;;;14.15;76.47;99412.18;130496;1265;108833;-80
2022/06/21 05:03:34;;;;;;;3.80;2.30;;;;;;;14.30;76.33;99422.59;130597;1265;108729;-80
2022/06/21 05:06:41;;;;;;;3.90;2.40;;;;;;;14.41;75.97;99422.15;130439;1264;108884;-80
2022/06/21 05:09:49;;;;;;;3.60;2.70;;;;;;;14.61;76.27;99429.29;130531;1265;108847;-80
2022/06/21 05:12:57;;;;;;;5.60;2.40;;;;;;;14.62;74.81;99436.23;130466;1265;108815;-79
2022/06/21 05:16:10;;;;;;;3.90;2.60;;;;;;;14.40;74.90;99432.42;130496;1267;108722;-80
2022/06/21 05:19:19;;;;;;;3.80;2.80;;;;;;;14.33;75.20;99426.15;130645;1265;108655;-82
2022/06/21 05:22:29;;;;;;;2.80;2.50;;;;;;;14.31;74.85;99420.94;130633;1265;107911;-82
2022/06/21 05:25:38;;;;;;;2.50;2.30;;;;;;;14.40;74.83;99427.23;130557;1265;107567;-82
2022/06/21 05:28:50;;;;;;;4.10;1.70;;;;;;;14.47;74.01;99425.69;130569;1265;108771;-82
2022/06/21 05:31:59;;;;;;;4.20;2.70;;;;;;;14.60;74.40;99421.40;130525;1267;108774;-82
2022/06/21 05:35:11;;;;;;;3.10;2.30;;;;;;;14.76;73.74;99424.56;130717;1264;108654;-83
2022/06/21 05:38:21;;;;;;;2.70;2.00;;;;;;;14.82;73.76;99425.48;130760;1265;109088;-82
2022/06/21 05:41:32;;;;;;;3.00;2.10;;;;;;;14.87;73.65;99425.89;130666;1262;108785;-80
2022/06/21 05:44:44;;;;;;;2.60;2.00;;;;;;;14.76;73.36;99433.08;130531;1265;108779;-82
2022/06/21 05:47:54;;;;;;;3.20;2.10;;;;;;;14.67;72.72;99442.54;130732;1262;108960;-80
2022/06/21 05:51:00;;;;;;;3.50;2.40;;;;;;;14.41;72.53;99442.13;130715;1265;107613;-81
2022/06/21 05:54:10;;;;;;;3.30;2.20;;;;;;;14.25;72.45;99435.71;130749;1265;108736;-80
2022/06/21 05:57:22;;;;;;;3.50;2.00;;;;;;;14.34;73.36;99438.17;130645;1265;108886;-82
2022/06/21 06:00:34;;;;;;;3.90;1.80;;;;;;;14.50;72.85;99443.98;130452;1266;109686;-80
2022/06/21 06:03:45;;;;;;;1.90;1.50;;;;;;;14.50;72.36;99447.52;130477;1267;108705;-81
2022/06/21 06:06:52;;;;;;;3.70;1.90;;;;;;;14.46;72.24;99447.16;130416;1267;108711;-80
2022/06/21 06:10:00;;;;;;;3.50;1.90;;;;;;;14.40;72.67;99448.69;130544;1265;108681;-83
2022/06/21 06:13:10;;;;;;;2.30;2.10;;;;;;;14.45;72.79;99443.15;130550;1265;108845;-81
2022/06/21 06:16:36;;;;;;;4.50;2.00;;;;;;;14.47;72.61;99442.42;130506;1265;108677;-81
2022/06/21 06:19:48;;;;;;;2.20;2.00;;;;;;;14.45;72.50;99444.10;130449;1267;108752;-81
2022/06/21 06:23:00;;;;;;;4.20;2.10;;;;;;;14.35;72.32;99439.86;130505;1265;108957;-79
2022/06/21 06:26:05;;;;;;;;;;;;;;;14.20;72.17;99436.89;130570;1264;108862;-83
2022/06/21 06:29:18;;;;;;;2.60;2.10;;;;;;;14.10;72.18;99443.15;130477;1265;108978;-83
2022/06/21 06:32:30;;;;;;;3.20;2.10;;;;;;;14.03;72.28;99442.67;130515;1264;108747;-82
2022/06/21 06:35:36;;;;;;;2.60;1.70;;;;;;;14.10;71.90;99442.35;130509;1265;108439;-82
2022/06/21 06:38:42;;;;;;;2.20;1.80;;;;;;;14.36;71.92;99439.63;130563;1265;108807;-82
2022/06/21 06:41:56;;;;;;;3.60;2.00;;;;;;;14.62;71.02;99441.75;130473;1265;108652;-83
2022/06/21 06:45:07;;;;;;;3.40;1.90;;;;;;;14.84;70.76;99447.20;130522;1265;108873;-83
2022/06/21 06:48:20;;;;;;;4.50;2.10;;;;;;;14.86;68.95;99444.35;130548;1265;108866;-82
2022/06/21 06:51:43;;;;;;;3.00;2.00;;;;;;;14.81;70.13;99446.11;130475;1265;108886;-83
2022/06/21 06:54:58;;;;;;;2.40;2.20;;;;;;;14.83;70.05;99447.36;130543;1264;108649;-82
2022/06/21 06:58:09;;;;;;;4.10;2.20;;;;;;;15.00;69.84;99441.92;130510;1265;108714;-81
2022/06/21 07:01:18;;;;;;;3.10;1.80;;;;;;;15.15;68.99;99441.63;130537;1265;108705;-81
2022/06/21 07:04:26;;;;;;;2.00;1.70;;;;;;;15.32;69.92;99442.45;130572;1264;109092;-81
2022/06/21 07:07:38;;;;;;;2.10;1.80;;;;;;;15.49;68.12;99442.40;130728;1265;108942;-82
2022/06/21 07:10:46;;;;;;;2.30;1.90;;;;;;;15.53;67.80;99437.06;130552;1265;107817;-81
2022/06/21 07:13:52;;;;;;;2.20;1.80;;;;;;;15.81;68.67;99436.86;130481;1265;108869;-82
2022/06/21 07:17:04;;;;;;;3.50;1.60;;;;;;;15.65;65.16;99449.00;130691;1265;109142;-81
2022/06/21 07:20:14;;;;;;;;;;;;;;;15.55;67.65;99439.92;130512;1265;108693;-82
2022/06/21 07:23:22;;;;;;;1.90;1.60;;;;;;;15.71;67.62;99442.27;130543;1264;109042;-82
2022/06/21 07:26:32;;;;;;;2.80;1.80;;;;;;;15.68;67.01;99441.10;130633;1264;107798;-81
2022/06/21 07:29:47;;;;;;;2.50;1.90;;;;;;;15.57;67.50;99441.39;130469;1265;108842;-82
2022/06/21 07:32:55;;;;;;;1.60;1.50;;;;;;;15.59;67.92;99446.40;130617;1265;108711;-82
2022/06/21 07:36:05;;;;;;;2.00;1.60;;;;;;;15.67;66.81;99441.72;130517;1265;108946;-82
2022/06/21 07:39:15;;;;;;;2.00;1.70;;;;;;;15.77;67.44;99442.45;130547;1268;108857;-82
2022/06/21 07:42:25;;;;;;;2.00;1.60;;;;;;;15.52;64.86;99451.47;130503;1264;108852;-82
2022/06/21 07:45:37;;;;;;;2.70;1.50;;;;;;;15.05;66.80;99455.41;130597;1265;108700;-81
2022/06/21 07:48:44;;;;;;;;;;;;;;;14.74;66.34;99463.48;130527;1265;108686;-81
2022/06/21 07:51:53;;;;;;;2.70;1.50;;;;;;;14.39;67.46;99466.15;130568;1265;108849;-80
2022/06/21 07:55:00;;;;;;;2.10;1.80;;;;;;;14.24;67.94;99465.56;130578;1265;108684;-81
2022/06/21 07:58:13;;;;;;;1.60;1.40;;;;;;;14.31;67.58;99465.23;130619;1264;108770;-80
2022/06/21 08:08:16;;;;;;;5.60;1.80;;;;;;;14.90;67.49;99457.43;130534;1268;108795;-80
2022/06/21 08:11:26;;;;;;;2.30;1.50;;;;;;;15.37;66.71;99451.98;130555;1268;108841;-80
2022/06/21 08:14:36;;;;;;;4.40;1.90;;;;;;;15.49;65.98;99458.79;130553;1268;108817;-81
2022/06/21 08:17:47;;;;;;;3.70;1.80;;;;;;;15.42;65.85;99465.68;130601;1268;108700;-80
2022/06/21 08:20:58;;;;;;;2.30;1.70;;;;;;;15.36;65.86;99461.77;130504;1268;108810;-81
2022/06/21 08:24:09;;;;;;;2.30;1.70;;;;;;;15.37;66.07;99469.89;130530;1268;108919;-80
2022/06/21 08:27:22;;;;;;;2.20;1.80;;;;;;;15.38;65.15;99480.31;130528;1268;107788;-80
2022/06/21 08:30:33;;;;;;;2.10;1.80;;;;;;;15.34;66.22;99485.02;130613;1268;108887;-80
2022/06/21 08:33:46;;;;;;;2.40;1.70;;;;;;;15.57;65.81;99478.90;130531;1268;108687;-79
2022/06/21 08:36:56;;;;;;;2.30;1.70;;;;;;;15.58;65.30;99481.63;130500;1266;108858;-80
2022/06/21 08:40:11;;;;;;;2.40;1.60;;;;;;;15.47;65.08;99484.52;130674;1268;109069;-80
2022/06/21 08:43:40;;;;;;;2.00;1.80;;;;;;;15.28;64.27;99491.63;130536;1268;109118;-81
2022/06/21 08:47:11;;;;;;;2.80;1.50;;;;;;;15.27;65.54;99482.19;130464;1267;108777;-81
2022/06/21 08:50:49;;;;;;;2.10;1.50;;;;;;;15.68;65.78;99483.06;130557;1267;108772;-81
2022/06/21 08:54:05;;;;;;;3.40;1.50;;;;;;;15.85;65.20;99486.11;130540;1268;108023;-81
2022/06/21 08:57:18;;;;;;;1.30;1.20;;;;;;;15.56;63.04;99491.35;130491;1268;109668;-80
2022/06/21 09:00:33;;;;;;;2.00;1.40;;;;;;;15.48;65.14;99495.14;130491;1268;108774;-83
2022/06/21 09:03:54;;;;;;;1.80;1.40;;;;;;;15.86;64.35;99504.28;130592;1268;108734;-81
2022/06/21 09:07:16;;;;;;;3.90;1.50;;;;;;;16.16;64.15;99505.61;130472;1268;108848;-81
2022/06/21 09:10:37;;;;;;;3.10;1.40;;;;;;;16.35;64.31;99501.91;130496;1268;108699;-80
2022/06/21 09:13:56;;;;;;;2.80;1.50;;;;;;;16.28;62.83;99504.74;130596;1268;108690;-82
2022/06/21 09:17:08;;;;;;;1.60;1.20;;;;;;;16.12;62.96;99500.55;130596;1266;109556;-81
2022/06/21 09:20:27;;;;;;;2.70;1.30;;;;;;;16.09;63.02;99505.16;130601;1266;108643;-82
2022/06/21 09:23:50;;;;;;;5.00;1.50;;;;;;;15.92;62.59;99513.52;130579;1268;108551;-83
2022/06/21 09:27:00;;;;;;;2.60;1.40;;;;;;;15.72;61.84;99509.85;130606;1267;108962;-81
2022/06/21 09:30:11;;;;;;;2.50;1.40;;;;;;;15.50;62.51;99507.43;130496;1265;107806;-81
2022/06/21 09:33:24;;;;;;;3.00;1.30;;;;;;;15.52;62.82;99503.71;130573;1266;108526;-83
2022/06/21 09:36:39;;;;;;;3.50;1.50;;;;;;;15.61;63.60;99505.18;130562;1268;108929;-82
2022/06/21 09:39:51;;;;;;;2.60;1.60;;;;;;;15.66;63.75;99501.92;130673;1266;109079;-82
2022/06/21 09:43:04;;;;;;;3.40;1.70;;;;;;;15.75;64.22;99505.38;130636;1267;108608;-83
2022/06/21 09:46:18;;;;;;;2.00;1.20;;;;;;;15.87;63.56;99506.48;130584;1265;108812;-81
2022/06/21 09:49:40;;;;;;;2.10;1.10;;;;;;;15.86;62.76;99510.34;130500;1266;108696;-80
2022/06/21 09:52:52;;;;;;;1.80;1.20;;;;;;;15.63;63.26;99499.27;130611;1268;107458;-81
2022/06/21 09:56:05;;;;;;;3.40;1.40;;;;;;;15.44;62.42;99499.69;130641;1267;108949;-83
2022/06/21 09:59:16;;;;;;;5.20;1.30;;;;;;;15.26;62.41;99501.78;130495;1268;108965;-81
2022/06/21 10:02:34;;;;;;;2.70;1.40;;;;;;;15.17;62.89;99506.05;130583;1268;108715;-80
2022/06/21 10:05:46;;;;;;;3.00;1.40;;;;;;;15.22;63.60;99510.58;130478;1266;108787;-80
2022/06/21 10:09:10;;;;;;;2.50;1.30;;;;;;;15.43;63.54;99508.52;130452;1266;107663;-82
2022/06/21 10:12:38;;;;;;;2.90;1.30;;;;;;;15.68;63.19;99505.36;130493;1268;108487;-81
2022/06/21 10:15:51;;;;;;;2.30;1.30;;;;;;;15.93;62.31;99502.05;130516;1266;108874;-81
2022/06/21 10:19:06;;;;;;;2.00;1.20;;;;;;;16.25;62.02;99494.89;130528;1268;107750;-80
2022/06/21 10:22:31;;;;;;;2.60;1.30;;;;;;;16.63;62.35;99491.21;130519;1268;108864;-83
2022/06/21 10:25:48;;;;;;;1.60;1.00;;;;;;;17.01;60.28;99492.27;130608;1266;109152;-81
2022/06/21 10:29:06;;;;;;;1.60;1.00;;;;;;;17.06;58.63;99499.92;130603;1268;108664;-81
2022/06/21 10:32:32;;;;;;;1.90;1.20;;;;;;;16.88;58.68;99495.13;130446;1267;108837;-82
2022/06/21 10:35:47;;;;;;;2.50;1.00;;;;;;;16.44;59.72;99494.94;130603;1266;108797;-82
2022/06/21 10:39:13;;;;;;;4.70;1.20;;;;;;;16.19;59.97;99501.27;130637;1266;108897;-83
2022/06/21 10:42:48;;;;;;;2.50;1.00;;;;;;;15.97;60.68;99507.60;130577;1268;108690;-82
2022/06/21 10:45:58;;;;;;;3.50;1.50;;;;;;;15.93;60.52;99506.19;130486;1268;108696;-82
2022/06/21 10:49:31;;;;;;;1.30;1.00;;;;;;;16.26;61.41;99497.86;130598;1267;108852;-81
2022/06/21 10:52:52;;;;;;;4.80;1.10;;;;;;;16.91;60.61;99494.73;130580;1266;108600;-83
2022/06/21 11:03:22;;;;;;;2.30;1.00;;;;;;;17.49;56.46;99501.73;130575;1267;108665;-83
2022/06/21 11:06:37;;;;;;;2.40;1.00;;;;;;;17.17;58.26;99496.84;130613;1268;108954;-82
2022/06/21 11:09:52;;;;;;;2.60;1.20;;;;;;;17.17;59.05;99494.64;130503;1267;109000;-80
2022/06/21 11:13:06;;;;;;;2.80;1.70;;;;;;;17.24;58.68;99493.11;130479;1268;108879;-83
2022/06/21 11:16:18;;;;;;;43.20;27.80;;;;;;;17.38;58.05;99494.41;130671;1268;106907;-82
2022/06/21 11:19:30;;;;;;;29.20;21.50;;;;;;;17.59;55.89;99494.91;130577;1267;108857;-83
2022/06/21 11:22:44;;;;;;;7.80;4.80;;;;;;;17.70;56.34;99487.91;130636;1268;108821;-80
2022/06/21 11:25:54;;;;;;;2.00;1.10;;;;;;;17.69;55.03;99501.31;130675;1266;107680;-80
2022/06/21 11:29:09;;;;;;;3.00;1.90;;;;;;;17.66;53.25;99499.79;130658;1267;108673;-81
2022/06/21 11:32:25;;;;;;;2.30;1.00;;;;;;;17.72;54.57;99492.95;130669;1268;108658;-81
2022/06/21 11:35:36;;;;;;;3.30;1.00;;;;;;;17.91;54.05;99486.56;130569;1267;108639;-81
2022/06/21 11:39:00;;;;;;;5.30;0.80;;;;;;;18.22;54.78;99485.17;130522;1267;109167;-81
2022/06/21 11:42:22;;;;;;;2.60;0.80;;;;;;;18.66;54.05;99479.17;130613;1267;108739;-81
2022/06/21 11:45:41;;;;;;;2.10;0.80;;;;;;;19.07;53.88;99481.54;130578;1268;108853;-81
2022/06/21 11:49:19;;;;;;;1.90;0.70;;;;;;;19.11;51.79;99486.60;130590;1268;108857;-82
2022/06/21 11:53:01;;;;;;;1.10;0.90;;;;;;;18.75;52.80;99481.64;130426;1268;108736;-81
2022/06/21 11:56:10;;;;;;;2.00;0.90;;;;;;;18.32;52.46;99492.35;130539;1267;108854;-83
2022/06/21 11:59:25;;;;;;;2.70;1.10;;;;;;;17.85;53.95;99500.27;130462;1268;108617;-82
2022/06/21 12:02:37;;;;;;;3.40;1.00;;;;;;;17.52;55.74;99510.46;130533;1267;108976;-83
2022/06/21 12:05:43;;;;;;;;;;;;;;;17.25;55.78;99516.58;130648;1268;108845;-80
2022/06/21 12:08:57;;;;;;;2.10;0.70;;;;;;;16.94;56.31;99513.52;130661;1267;108882;-81
2022/06/21 12:12:20;;;;;;;2.20;0.90;;;;;;;16.66;57.30;99528.95;130716;1267;106952;-81
2022/06/21 12:15:56;;;;;;;1.90;0.70;;;;;;;16.28;58.22;99552.02;130652;1268;108880;-83
2022/06/21 12:19:06;;;;;;;6.60;0.80;;;;;;;15.73;61.05;99579.02;130491;1266;107803;-83
2022/06/21 12:22:22;;;;;;;4.60;1.00;;;;;;;15.31;63.75;99575.48;130513;1265;108770;-79
2022/06/21 12:25:27;;;;;;;2.90;0.80;;;;;;;15.25;64.13;99567.52;130503;1268;108088;-81
2022/06/21 12:28:36;;;;;;;1.30;0.70;;;;;;;15.47;64.07;99565.91;130411;1268;108707;-80
2022/06/21 12:31:47;;;;;;;2.60;0.70;;;;;;;15.81;63.96;99558.58;130548;1267;109146;-82
2022/06/21 12:35:01;;;;;;;3.40;0.90;;;;;;;16.08;63.35;99549.09;130610;1267;109561;-83
2022/06/21 12:38:11;;;;;;;1.80;0.90;;;;;;;16.22;62.85;99537.54;130608;1266;108629;-83
2022/06/21 12:41:26;;;;;;;1.70;0.90;;;;;;;16.31;61.95;99537.86;130616;1268;108829;-81
2022/06/21 12:44:44;;;;;;;2.10;0.90;;;;;;;16.52;61.78;99527.02;130612;1266;108605;-82
2022/06/21 12:48:05;;;;;;;1.90;0.90;;;;;;;16.83;61.57;99518.39;130473;1266;108811;-83
2022/06/21 12:51:18;;;;;;;2.90;0.90;;;;;;;17.19;60.15;99518.83;130629;1268;108717;-82
2022/06/21 12:54:46;;;;;;;1.90;1.00;;;;;;;17.46;59.90;99527.15;130491;1268;109002;-83
2022/06/21 12:58:02;;;;;;;2.10;1.00;;;;;;;17.64;59.07;99526.20;130484;1268;108786;-83
2022/06/21 13:01:19;;;;;;;3.90;1.10;;;;;;;17.60;58.74;99548.10;130660;1268;108698;-82
2022/06/21 13:04:51;;;;;;;3.00;1.60;;;;;;;17.27;58.99;99568.50;130496;1268;109033;-83
2022/06/21 13:08:23;;;;;;;11.80;10.30;;;;;;;16.46;66.63;99612.52;130741;1266;108711;-83
2022/06/21 13:12:05;;;;;;;3.80;2.90;;;;;;;15.19;68.71;99591.06;130724;1266;108810;-81
2022/06/21 13:15:31;;;;;;;2.80;2.20;;;;;;;14.89;69.08;99571.65;130609;1265;108899;-80
2022/06/21 13:19:11;;;;;;;1.60;0.80;;;;;;;14.78;71.02;99567.13;130394;1268;108680;-82
2022/06/21 13:22:38;;;;;;;1.00;0.70;;;;;;;14.64;70.04;99564.27;130508;1268;108577;-81
2022/06/21 13:25:53;;;;;;;10.10;6.00;;;;;;;14.72;70.74;99564.14;130621;1266;108693;-79
2022/06/21 13:29:18;;;;;;;3.80;2.20;;;;;;;14.90;71.36;99561.66;130554;1268;108819;-80
2022/06/21 13:32:27;;;;;;;5.20;4.00;;;;;;;15.14;72.19;99562.80;130651;1268;108737;-80
2022/06/21 13:35:45;;;;;;;2.80;1.80;;;;;;;15.37;71.56;99560.08;130486;1268;108706;-82
2022/06/21 13:38:55;;;;;;;1.30;1.00;;;;;;;15.64;71.48;99556.64;130657;1268;108804;-82
2022/06/21 13:45:46;;;;;;;4.40;2.20;;;;;;;16.20;70.01;99562.51;130651;1268;108976;-81
2022/06/21 13:48:55;;;;;;;3.90;2.10;;;;;;;16.42;69.33;99559.06;130741;1268;109531;-82
2022/06/21 13:52:07;;;;;;;14.80;6.20;;;;;;;16.62;68.47;99555.23;130475;1268;108838;-82
2022/06/21 13:55:20;;;;;;;11.90;4.90;;;;;;;16.90;67.16;99554.66;130478;1267;108794;-81
2022/06/21 13:58:34;;;;;;;21.80;10.80;;;;;;;17.13;67.05;99552.23;130363;1266;108672;-77
2022/06/21 14:01:45;;;;;;;5.30;2.40;;;;;;;17.24;64.48;99549.45;130533;1267;108259;-79
2022/06/21 14:04:58;;;;;;;2.10;1.10;;;;;;;17.56;65.74;99541.23;130374;1268;108742;-81
2022/06/21 14:08:13;;;;;;;1.30;1.00;;;;;;;17.94;62.57;99542.89;130507;1267;108714;-84
2022/06/21 14:11:27;;;;;;;1.30;1.00;;;;;;;18.04;62.18;99533.14;130505;1267;108922;-83
2022/06/21 14:14:42;;;;;;;5.20;3.30;;;;;;;18.00;61.60;99531.34;130505;1267;108214;-84
2022/06/21 14:17:55;;;;;;;2.60;1.90;;;;;;;17.93;62.95;99532.90;130511;1267;108702;-83
2022/06/21 14:21:07;;;;;;;4.40;3.40;;;;;;;17.76;61.92;99539.91;130596;1267;108833;-82
2022/06/21 14:24:18;;;;;;;2.70;1.00;;;;;;;17.42;61.83;99589.11;130593;1266;109290;-84
2022/06/21 14:27:30;;;;;;;2.40;0.70;;;;;;;16.72;63.42;99624.06;130478;1267;108757;-82
2022/06/21 14:30:45;;;;;;;1.60;0.90;;;;;;;16.15;65.29;99612.86;130497;1266;108745;-83
2022/06/21 14:33:55;;;;;;;4.20;2.90;;;;;;;15.90;65.19;99607.44;130499;1266;108610;-82
2022/06/21 14:37:12;;;;;;;2.90;1.30;;;;;;;15.74;65.26;99613.87;130592;1268;108840;-80
2022/06/21 14:40:28;;;;;;;3.10;1.00;;;;;;;15.47;65.54;99626.50;130373;1268;108768;-81
2022/06/21 14:43:42;;;;;;;8.60;2.80;;;;;;;15.26;65.37;99625.27;130479;1268;108819;-82
2022/06/21 14:46:54;;;;;;;1.80;1.00;;;;;;;15.19;65.52;99606.11;130641;1267;109846;-83
2022/06/21 14:50:10;;;;;;;1.50;0.90;;;;;;;15.19;65.40;99609.75;130581;1268;108851;-87
2022/06/21 14:53:44;;;;;;;2.20;1.10;;;;;;;15.11;65.54;99610.45;130603;1268;108878;-82
2022/06/21 14:57:01;;;;;;;1.70;1.00;;;;;;;15.21;65.34;99609.63;130637;1268;108806;-90
2022/06/21 15:00:14;;;;;;;1.40;0.90;;;;;;;15.37;65.35;99606.27;130691;1268;107650;-74
2022/06/21 15:03:28;;;;;;;1.30;0.80;;;;;;;15.57;65.13;99606.03;130435;1268;108856;-79
2022/06/21 15:06:36;;;;;;;3.10;0.70;;;;;;;15.80;64.68;99614.89;130424;1268;108753;-75
2022/06/21 15:09:47;;;;;;;0.60;0.50;;;;;;;15.99;64.73;99612.55;130369;1268;108649;-74